sensor_id;sensor_type;location;lat;lon;timestamp;pressure;altitude;pressure_sealevel;temperature;humidity
43741;BME280;29352;48.708;9.290;2022-07-29T00:00:43;97616.84;;;12.74;55.22
43741;BME280;29352;48.708;9.290;2022-07-29T00:03:11;97610.69;;;12.82;55.11
43741;BME280;29352;48.708;9.290;2022-07-29T00:05:41;97613.47;;;13.04;55.09
43741;BME280;29352;48.708;9.290;2022-07-29T00:08:08;97606.88;;;12.41;56.43
43741;BME280;29352;48.708;9.290;2022-07-29T00:10:34;97604.19;;;13.19;54.50
43741;BME280;29352;48.708;9.290;2022-07-29T00:13:01;97598.59;;;12.74;54.87
43741;BME280;29352;48.708;9.290;2022-07-29T00:15:27;97601.28;;;13.16;54.47
43741;BME280;29352;48.708;9.290;2022-07-29T00:17:53;97599.72;;;12.59;56.19
43741;BME280;29352;48.708;9.290;2022-07-29T00:20:18;97597.81;;;12.74;55.53
43741;BME280;29352;48.708;9.290;2022-07-29T00:22:44;97583.06;;;12.19;56.32
43741;BME280;29352;48.708;9.290;2022-07-29T00:25:12;97592.25;;;12.79;55.57
43741;BME280;29352;48.708;9.290;2022-07-29T00:27:38;97587.72;;;12.88;55.34
43741;BME280;29352;48.708;9.290;2022-07-29T00:30:05;97608.97;;;11.33;58.70
43741;BME280;29352;48.708;9.290;2022-07-29T00:32:32;97601.94;;;12.43;56.48
43741;BME280;29352;48.708;9.290;2022-07-29T00:34:58;97598.69;;;12.69;55.70
43741;BME280;29352;48.708;9.290;2022-07-29T00:37:42;97601.78;;;11.74;57.92
43741;BME280;29352;48.708;9.290;2022-07-29T00:40:08;97597.03;;;11.66;58.00
43741;BME280;29352;48.708;9.290;2022-07-29T00:42:44;97584.69;;;12.34;56.52
43741;BME280;29352;48.708;9.290;2022-07-29T00:45:13;97589.00;;;11.75;57.89
43741;BME280;29352;48.708;9.290;2022-07-29T00:47:39;97584.69;;;12.20;56.09
43741;BME280;29352;48.708;9.290;2022-07-29T00:50:07;97589.63;;;11.86;56.79
43741;BME280;29352;48.708;9.290;2022-07-29T00:52:36;97578.94;;;11.94;55.84
43741;BME280;29352;48.708;9.290;2022-07-29T00:55:05;97585.69;;;12.80;55.10
43741;BME280;29352;48.708;9.290;2022-07-29T00:57:33;97592.78;;;11.60;57.52
43741;BME280;29352;48.708;9.290;2022-07-29T00:59:59;97579.41;;;11.96;56.83
43741;BME280;29352;48.708;9.290;2022-07-29T01:02:25;97574.19;;;12.00;56.35
43741;BME280;29352;48.708;9.290;2022-07-29T01:04:51;97582.91;;;10.94;57.98
43741;BME280;29352;48.708;9.290;2022-07-29T01:07:17;97579.06;;;11.52;57.25
43741;BME280;29352;48.708;9.290;2022-07-29T01:09:45;97576.31;;;11.70;56.01
43741;BME280;29352;48.708;9.290;2022-07-29T01:12:15;97567.19;;;11.47;57.38
43741;BME280;29352;48.708;9.290;2022-07-29T01:14:45;97566.78;;;11.21;57.38
43741;BME280;29352;48.708;9.290;2022-07-29T01:28:01;97562.72;;;11.00;58.23
43741;BME280;29352;48.708;9.290;2022-07-29T01:30:32;97558.41;;;11.69;56.69
43741;BME280;29352;48.708;9.290;2022-07-29T01:33:07;97569.28;;;11.18;57.62
43741;BME280;29352;48.708;9.290;2022-07-29T01:35:39;97554.44;;;11.81;56.09
43741;BME280;29352;48.708;9.290;2022-07-29T01:38:13;97556.38;;;11.61;56.57
43741;BME280;29352;48.708;9.290;2022-07-29T01:41:02;97551.28;;;12.34;55.12
43741;BME280;29352;48.708;9.290;2022-07-29T01:43:42;97546.97;;;11.86;55.36
43741;BME280;29352;48.708;9.290;2022-07-29T01:46:23;97552.75;;;11.66;55.31
43741;BME280;29352;48.708;9.290;2022-07-29T01:49:06;97542.41;;;11.87;55.73
43741;BME280;29352;48.708;9.290;2022-07-29T01:51:49;97549.59;;;11.78;55.20
43741;BME280;29352;48.708;9.290;2022-07-29T01:54:28;97559.00;;;11.15;56.24
43741;BME280;29352;48.708;9.290;2022-07-29T01:57:02;97567.13;;;10.96;56.63
43741;BME280;29352;48.708;9.290;2022-07-29T01:59:34;97561.84;;;11.23;55.80
43741;BME280;29352;48.708;9.290;2022-07-29T02:02:02;97561.66;;;11.39;55.18
43741;BME280;29352;48.708;9.290;2022-07-29T02:04:32;97558.34;;;11.42;55.02
43741;BME280;29352;48.708;9.290;2022-07-29T02:07:05;97554.00;;;12.61;53.47
43741;BME280;29352;48.708;9.290;2022-07-29T02:09:35;97550.56;;;11.68;55.21
43741;BME280;29352;48.708;9.290;2022-07-29T02:12:04;97547.81;;;12.01;54.63
43741;BME280;29352;48.708;9.290;2022-07-29T02:14:41;97544.94;;;10.94;56.60
43741;BME280;29352;48.708;9.290;2022-07-29T02:17:13;97545.53;;;11.61;54.90
43741;BME280;29352;48.708;9.290;2022-07-29T02:19:48;97540.91;;;12.22;53.54
43741;BME280;29352;48.708;9.290;2022-07-29T02:22:16;97544.94;;;11.64;53.88
43741;BME280;29352;48.708;9.290;2022-07-29T02:24:46;97547.78;;;11.21;55.13
43741;BME280;29352;48.708;9.290;2022-07-29T02:27:15;97544.53;;;11.71;54.61
43741;BME280;29352;48.708;9.290;2022-07-29T02:29:46;97540.31;;;11.65;54.28
43741;BME280;29352;48.708;9.290;2022-07-29T02:32:16;97539.97;;;11.53;54.78
43741;BME280;29352;48.708;9.290;2022-07-29T02:34:45;97540.00;;;11.34;55.26
43741;BME280;29352;48.708;9.290;2022-07-29T02:37:13;97540.91;;;11.62;54.36
43741;BME280;29352;48.708;9.290;2022-07-29T02:39:44;97540.94;;;10.86;56.43
43741;BME280;29352;48.708;9.290;2022-07-29T02:42:15;97545.66;;;11.37;55.56
43741;BME280;29352;48.708;9.290;2022-07-29T02:44:43;97538.72;;;11.45;55.03
43741;BME280;29352;48.708;9.290;2022-07-29T02:47:33;97533.84;;;11.28;54.51
43741;BME280;29352;48.708;9.290;2022-07-29T02:50:20;97536.19;;;10.78;55.46
43741;BME280;29352;48.708;9.290;2022-07-29T02:53:08;97537.06;;;10.92;55.72
43741;BME280;29352;48.708;9.290;2022-07-29T02:55:56;97538.94;;;10.97;55.58
43741;BME280;29352;48.708;9.290;2022-07-29T02:58:31;97537.78;;;11.17;55.81
43741;BME280;29352;48.708;9.290;2022-07-29T03:01:04;97531.63;;;11.49;54.76
43741;BME280;29352;48.708;9.290;2022-07-29T03:03:37;97539.56;;;11.45;54.20
43741;BME280;29352;48.708;9.290;2022-07-29T03:06:08;97538.47;;;11.09;54.99
43741;BME280;29352;48.708;9.290;2022-07-29T03:08:37;97541.84;;;11.19;54.62
43741;BME280;29352;48.708;9.290;2022-07-29T03:11:04;97533.50;;;11.48;54.16
43741;BME280;29352;48.708;9.290;2022-07-29T03:13:30;97537.47;;;11.56;53.70
43741;BME280;29352;48.708;9.290;2022-07-29T03:15:58;97535.38;;;10.96;54.87
43741;BME280;29352;48.708;9.290;2022-07-29T03:18:24;97536.13;;;10.40;55.91
43741;BME280;29352;48.708;9.290;2022-07-29T03:20:50;97546.34;;;10.48;55.47
43741;BME280;29352;48.708;9.290;2022-07-29T03:23:20;97545.00;;;10.89;54.22
43741;BME280;29352;48.708;9.290;2022-07-29T03:25:48;97544.06;;;10.07;56.01
43741;BME280;29352;48.708;9.290;2022-07-29T03:28:15;97542.34;;;10.41;55.02
43741;BME280;29352;48.708;9.290;2022-07-29T03:30:40;97540.69;;;10.45;54.99
43741;BME280;29352;48.708;9.290;2022-07-29T03:33:06;97537.63;;;10.70;54.52
43741;BME280;29352;48.708;9.290;2022-07-29T03:35:31;97541.31;;;10.37;55.27
43741;BME280;29352;48.708;9.290;2022-07-29T03:37:57;97550.56;;;9.82;56.15
43741;BME280;29352;48.708;9.290;2022-07-29T03:40:41;97546.44;;;9.85;56.52
43741;BME280;29352;48.708;9.290;2022-07-29T03:43:15;97545.16;;;9.82;55.97
43741;BME280;29352;48.708;9.290;2022-07-29T03:45:47;97543.03;;;9.74;56.24
43741;BME280;29352;48.708;9.290;2022-07-29T03:48:20;97546.63;;;10.23;56.29
43741;BME280;29352;48.708;9.290;2022-07-29T03:50:50;97550.06;;;10.04;55.81
43741;BME280;29352;48.708;9.290;2022-07-29T03:53:17;97541.00;;;10.14;55.70
43741;BME280;29352;48.708;9.290;2022-07-29T03:55:47;97551.84;;;10.14;56.23
43741;BME280;29352;48.708;9.290;2022-07-29T03:58:16;97553.09;;;9.98;56.88
43741;BME280;29352;48.708;9.290;2022-07-29T04:00:44;97550.66;;;10.68;55.55
43741;BME280;29352;48.708;9.290;2022-07-29T04:03:12;97543.19;;;10.12;56.33
43741;BME280;29352;48.708;9.290;2022-07-29T04:05:38;97549.66;;;10.40;55.32
43741;BME280;29352;48.708;9.290;2022-07-29T04:08:04;97550.91;;;10.48;55.83
43741;BME280;29352;48.708;9.290;2022-07-29T04:10:30;97558.75;;;10.73;55.08
43741;BME280;29352;48.708;9.290;2022-07-29T04:12:56;97558.28;;;10.66;55.28
43741;BME280;29352;48.708;9.290;2022-07-29T04:15:21;97560.00;;;11.00;53.98
43741;BME280;29352;48.708;9.290;2022-07-29T04:17:47;97564.84;;;11.03;54.11
43741;BME280;29352;48.708;9.290;2022-07-29T04:20:12;97564.50;;;11.80;53.45
43741;BME280;29352;48.708;9.290;2022-07-29T04:22:39;97570.94;;;11.14;54.50
43741;BME280;29352;48.708;9.290;2022-07-29T04:25:05;97568.06;;;11.76;53.19
43741;BME280;29352;48.708;9.290;2022-07-29T04:27:31;97577.41;;;11.69;53.65
43741;BME280;29352;48.708;9.290;2022-07-29T04:29:57;97576.63;;;10.74;54.83
43741;BME280;29352;48.708;9.290;2022-07-29T04:32:22;97575.72;;;10.60;55.60
43741;BME280;29352;48.708;9.290;2022-07-29T04:34:49;97567.41;;;11.13;54.26
43741;BME280;29352;48.708;9.290;2022-07-29T04:37:14;97581.50;;;10.96;54.56
43741;BME280;29352;48.708;9.290;2022-07-29T04:39:39;97566.63;;;11.97;53.57
43741;BME280;29352;48.708;9.290;2022-07-29T04:42:05;97565.69;;;11.74;53.73
43741;BME280;29352;48.708;9.290;2022-07-29T04:44:30;97559.25;;;12.44;52.78
43741;BME280;29352;48.708;9.290;2022-07-29T04:46:56;97572.97;;;11.60;54.75
43741;BME280;29352;48.708;9.290;2022-07-29T04:49:22;97566.28;;;11.52;55.53
43741;BME280;29352;48.708;9.290;2022-07-29T04:51:48;97568.34;;;11.93;54.08
43741;BME280;29352;48.708;9.290;2022-07-29T04:54:13;97569.66;;;11.95;54.01
43741;BME280;29352;48.708;9.290;2022-07-29T04:56:39;97568.91;;;12.64;52.75
43741;BME280;29352;48.708;9.290;2022-07-29T04:59:04;97578.06;;;12.54;52.86
43741;BME280;29352;48.708;9.290;2022-07-29T05:01:30;97571.63;;;13.14;52.91
43741;BME280;29352;48.708;9.290;2022-07-29T05:03:55;97564.31;;;13.59;51.50
43741;BME280;29352;48.708;9.290;2022-07-29T05:06:21;97566.59;;;13.66;50.81
43741;BME280;29352;48.708;9.290;2022-07-29T05:08:46;97571.81;;;12.67;52.76
43741;BME280;29352;48.708;9.290;2022-07-29T05:11:12;97573.38;;;12.00;53.98
43741;BME280;29352;48.708;9.290;2022-07-29T05:13:37;97565.44;;;13.81;51.25
43741;BME280;29352;48.708;9.290;2022-07-29T05:16:02;97569.78;;;14.13;50.64
43741;BME280;29352;48.708;9.290;2022-07-29T05:18:28;97571.63;;;16.26;47.66
43741;BME280;29352;48.708;9.290;2022-07-29T05:20:54;97576.53;;;16.12;48.62
43741;BME280;29352;48.708;9.290;2022-07-29T05:23:19;97570.47;;;13.74;51.77
43741;BME280;29352;48.708;9.290;2022-07-29T05:25:45;97569.84;;;14.30;51.64
43741;BME280;29352;48.708;9.290;2022-07-29T05:28:11;97568.38;;;16.92;46.87
43741;BME280;29352;48.708;9.290;2022-07-29T05:30:37;97567.69;;;18.73;43.99
43741;BME280;29352;48.708;9.290;2022-07-29T05:33:03;97570.72;;;17.65;46.10
43741;BME280;29352;48.708;9.290;2022-07-29T05:35:28;97572.22;;;15.93;48.49
43741;BME280;29352;48.708;9.290;2022-07-29T05:37:53;97581.56;;;15.92;47.97
43741;BME280;29352;48.708;9.290;2022-07-29T05:40:19;97580.13;;;16.93;47.88
43741;BME280;29352;48.708;9.290;2022-07-29T05:42:47;97582.50;;;15.96;48.07
43741;BME280;29352;48.708;9.290;2022-07-29T05:45:12;97584.91;;;16.07;47.95
43741;BME280;29352;48.708;9.290;2022-07-29T05:47:38;97584.28;;;16.78;46.73
43741;BME280;29352;48.708;9.290;2022-07-29T05:50:04;97584.78;;;17.22;46.26
43741;BME280;29352;48.708;9.290;2022-07-29T05:52:29;97591.88;;;15.09;50.67
43741;BME280;29352;48.708;9.290;2022-07-29T05:54:55;97590.72;;;17.03;46.81
43741;BME280;29352;48.708;9.290;2022-07-29T05:57:23;97587.59;;;16.62;47.64
43741;BME280;29352;48.708;9.290;2022-07-29T05:59:50;97581.88;;;18.51;44.52
43741;BME280;29352;48.708;9.290;2022-07-29T06:02:17;97592.13;;;16.58;47.63
43741;BME280;29352;48.708;9.290;2022-07-29T06:04:43;97599.84;;;18.03;45.18
43741;BME280;29352;48.708;9.290;2022-07-29T06:07:09;97600.41;;;16.32;48.31
43741;BME280;29352;48.708;9.290;2022-07-29T06:09:36;97600.56;;;15.28;50.31
43741;BME280;29352;48.708;9.290;2022-07-29T06:12:02;97602.09;;;15.99;48.81
43741;BME280;29352;48.708;9.290;2022-07-29T06:14:28;97601.41;;;15.55;49.23
43741;BME280;29352;48.708;9.290;2022-07-29T06:16:54;97598.84;;;16.61;47.32
43741;BME280;29352;48.708;9.290;2022-07-29T06:19:20;97607.50;;;14.60;51.50
43741;BME280;29352;48.708;9.290;2022-07-29T06:21:46;97606.56;;;14.73;51.14
43741;BME280;29352;48.708;9.290;2022-07-29T06:24:14;97608.78;;;15.19;49.97
43741;BME280;29352;48.708;9.290;2022-07-29T06:26:41;97596.22;;;15.01;49.37
43741;BME280;29352;48.708;9.290;2022-07-29T06:29:08;97604.28;;;15.41;49.17
43741;BME280;29352;48.708;9.290;2022-07-29T06:31:37;97595.59;;;16.67;47.00
43741;BME280;29352;48.708;9.290;2022-07-29T06:34:03;97603.75;;;18.02;46.66
43741;BME280;29352;48.708;9.290;2022-07-29T06:36:29;97594.56;;;18.92;44.54
43741;BME280;29352;48.708;9.290;2022-07-29T06:38:55;97606.38;;;16.26;48.15
43741;BME280;29352;48.708;9.290;2022-07-29T06:41:20;97605.63;;;17.89;46.03
43741;BME280;29352;48.708;9.290;2022-07-29T06:43:47;97610.31;;;17.89;45.08
43741;BME280;29352;48.708;9.290;2022-07-29T06:46:15;97606.22;;;17.41;46.37
43741;BME280;29352;48.708;9.290;2022-07-29T06:48:42;97604.84;;;20.68;42.58
43741;BME280;29352;48.708;9.290;2022-07-29T06:51:10;97601.63;;;17.87;45.46
43741;BME280;29352;48.708;9.290;2022-07-29T06:53:38;97608.34;;;18.22;44.33
43741;BME280;29352;48.708;9.290;2022-07-29T06:56:05;97603.09;;;19.03;43.10
43741;BME280;29352;48.708;9.290;2022-07-29T06:58:34;97608.84;;;20.23;42.49
43741;BME280;29352;48.708;9.290;2022-07-29T07:01:02;97612.56;;;19.30;43.30
43741;BME280;29352;48.708;9.290;2022-07-29T07:03:29;97615.06;;;17.25;46.19
43741;BME280;29352;48.708;9.290;2022-07-29T07:05:55;97609.06;;;18.68;44.95
43741;BME280;29352;48.708;9.290;2022-07-29T07:08:22;97617.00;;;20.35;42.21
43741;BME280;29352;48.708;9.290;2022-07-29T07:10:51;97612.06;;;19.68;42.85
43741;BME280;29352;48.708;9.290;2022-07-29T07:13:19;97617.56;;;18.05;45.84
43741;BME280;29352;48.708;9.290;2022-07-29T07:15:44;97619.94;;;18.65;44.56
43741;BME280;29352;48.708;9.290;2022-07-29T07:18:13;97618.34;;;18.88;44.52
43741;BME280;29352;48.708;9.290;2022-07-29T07:20:39;97622.47;;;14.79;49.65
43741;BME280;29352;48.708;9.290;2022-07-29T07:23:04;97624.75;;;17.98;45.12
43741;BME280;29352;48.708;9.290;2022-07-29T07:25:30;97624.75;;;17.98;44.75
43741;BME280;29352;48.708;9.290;2022-07-29T07:27:56;97628.38;;;15.73;48.88
43741;BME280;29352;48.708;9.290;2022-07-29T07:30:21;97623.69;;;17.57;47.21
43741;BME280;29352;48.708;9.290;2022-07-29T07:32:47;97635.22;;;17.21;47.22
43741;BME280;29352;48.708;9.290;2022-07-29T07:35:12;97635.69;;;16.63;46.93
43741;BME280;29352;48.708;9.290;2022-07-29T07:37:40;97630.69;;;16.95;46.92
43741;BME280;29352;48.708;9.290;2022-07-29T07:40:07;97624.78;;;17.77;45.69
43741;BME280;29352;48.708;9.290;2022-07-29T07:42:34;97625.75;;;17.60;45.90
43741;BME280;29352;48.708;9.290;2022-07-29T07:45:00;97633.94;;;18.14;45.45
43741;BME280;29352;48.708;9.290;2022-07-29T07:47:26;97630.50;;;21.42;41.89
43741;BME280;29352;48.708;9.290;2022-07-29T07:49:52;97624.25;;;19.27;43.95
43741;BME280;29352;48.708;9.290;2022-07-29T07:52:20;97620.66;;;21.99;40.70
43741;BME280;29352;48.708;9.290;2022-07-29T07:54:47;97625.09;;;21.65;40.57
43741;BME280;29352;48.708;9.290;2022-07-29T07:57:14;97631.56;;;22.15;40.38
43741;BME280;29352;48.708;9.290;2022-07-29T07:59:40;97629.91;;;22.80;39.31
43741;BME280;29352;48.708;9.290;2022-07-29T08:02:06;97625.94;;;23.34;38.89
43741;BME280;29352;48.708;9.290;2022-07-29T08:04:33;97626.97;;;22.69;39.49
43741;BME280;29352;48.708;9.290;2022-07-29T08:06:59;97622.75;;;22.29;40.11
43741;BME280;29352;48.708;9.290;2022-07-29T08:09:27;97619.44;;;24.68;37.76
43741;BME280;29352;48.708;9.290;2022-07-29T08:11:54;97628.84;;;24.56;37.86
43741;BME280;29352;48.708;9.290;2022-07-29T08:14:20;97626.66;;;23.27;38.45
43741;BME280;29352;48.708;9.290;2022-07-29T08:16:46;97630.34;;;20.64;41.13
43741;BME280;29352;48.708;9.290;2022-07-29T08:19:13;97625.97;;;21.50;40.98
43741;BME280;29352;48.708;9.290;2022-07-29T08:21:38;97623.63;;;21.91;40.09
43741;BME280;29352;48.708;9.290;2022-07-29T08:24:05;97629.63;;;20.68;41.31
43741;BME280;29352;48.708;9.290;2022-07-29T08:26:49;97622.16;;;21.97;39.83
43741;BME280;29352;48.708;9.290;2022-07-29T08:29:15;97621.16;;;23.95;37.52
43741;BME280;29352;48.708;9.290;2022-07-29T08:31:41;97625.22;;;22.61;39.19
43741;BME280;29352;48.708;9.290;2022-07-29T08:34:07;97621.72;;;23.13;38.98
43741;BME280;29352;48.708;9.290;2022-07-29T08:36:33;97618.56;;;23.75;38.47
43741;BME280;29352;48.708;9.290;2022-07-29T08:39:00;97625.91;;;23.30;39.10
43741;BME280;29352;48.708;9.290;2022-07-29T08:41:26;97619.97;;;22.06;40.19
43741;BME280;29352;48.708;9.290;2022-07-29T08:43:55;97630.53;;;19.96;41.43
43741;BME280;29352;48.708;9.290;2022-07-29T08:46:21;97618.13;;;23.73;37.22
43741;BME280;29352;48.708;9.290;2022-07-29T08:48:48;97627.84;;;22.73;38.41
43741;BME280;29352;48.708;9.290;2022-07-29T08:51:20;97606.94;;;23.96;37.56
43741;BME280;29352;48.708;9.290;2022-07-29T08:53:49;97623.63;;;25.06;35.93
43741;BME280;29352;48.708;9.290;2022-07-29T08:56:17;97619.31;;;24.54;37.21
43741;BME280;29352;48.708;9.290;2022-07-29T08:58:45;97610.06;;;23.95;38.18
43741;BME280;29352;48.708;9.290;2022-07-29T09:01:16;97615.78;;;24.57;36.36
43741;BME280;29352;48.708;9.290;2022-07-29T09:03:46;97610.19;;;26.17;35.19
43741;BME280;29352;48.708;9.290;2022-07-29T09:06:17;97614.53;;;26.90;34.05
43741;BME280;29352;48.708;9.290;2022-07-29T09:08:46;97623.94;;;24.35;36.56
43741;BME280;29352;48.708;9.290;2022-07-29T09:11:13;97632.88;;;22.44;38.12
43741;BME280;29352;48.708;9.290;2022-07-29T09:13:39;97623.31;;;23.14;37.69
43741;BME280;29352;48.708;9.290;2022-07-29T09:16:04;97633.50;;;24.04;37.05
43741;BME280;29352;48.708;9.290;2022-07-29T09:18:38;97631.56;;;25.85;34.93
43741;BME280;29352;48.708;9.290;2022-07-29T09:21:09;97625.88;;;24.79;36.17
43741;BME280;29352;48.708;9.290;2022-07-29T09:24:11;97630.91;;;25.29;35.61
43741;BME280;29352;48.708;9.290;2022-07-29T09:26:45;97633.47;;;25.63;34.96
43741;BME280;29352;48.708;9.290;2022-07-29T09:29:16;97631.03;;;24.84;37.20
43741;BME280;29352;48.708;9.290;2022-07-29T09:31:46;97629.28;;;24.62;37.00
43741;BME280;29352;48.708;9.290;2022-07-29T09:34:22;97629.84;;;24.37;36.97
43741;BME280;29352;48.708;9.290;2022-07-29T09:36:50;97626.09;;;24.60;36.77
43741;BME280;29352;48.708;9.290;2022-07-29T09:39:34;97615.50;;;23.87;36.82
43741;BME280;29352;48.708;9.290;2022-07-29T09:42:05;97622.53;;;24.59;36.85
43741;BME280;29352;48.708;9.290;2022-07-29T09:44:46;97624.16;;;24.68;37.09
43741;BME280;29352;48.708;9.290;2022-07-29T09:47:15;97608.53;;;25.77;35.23
43741;BME280;29352;48.708;9.290;2022-07-29T09:49:54;97602.97;;;25.81;35.45
43741;BME280;29352;48.708;9.290;2022-07-29T09:52:28;97597.81;;;25.79;35.77
43741;BME280;29352;48.708;9.290;2022-07-29T09:55:05;97597.91;;;26.11;34.69
43741;BME280;29352;48.708;9.290;2022-07-29T09:57:32;97607.72;;;23.29;37.40
43741;BME280;29352;48.708;9.290;2022-07-29T10:00:00;97614.88;;;24.42;35.63
43741;BME280;29352;48.708;9.290;2022-07-29T10:02:30;97611.94;;;22.43;37.83
43741;BME280;29352;48.708;9.290;2022-07-29T10:04:59;97614.19;;;24.56;35.82
43741;BME280;29352;48.708;9.290;2022-07-29T10:07:26;97610.38;;;23.52;36.68
43741;BME280;29352;48.708;9.290;2022-07-29T10:10:08;97611.31;;;21.65;38.86
43741;BME280;29352;48.708;9.290;2022-07-29T10:12:33;97608.69;;;21.92;38.88
43741;BME280;29352;48.708;9.290;2022-07-29T10:15:01;97595.50;;;23.64;37.17
43741;BME280;29352;48.708;9.290;2022-07-29T10:17:28;97598.78;;;24.55;36.47
43741;BME280;29352;48.708;9.290;2022-07-29T10:19:55;97590.66;;;25.67;35.70
43741;BME280;29352;48.708;9.290;2022-07-29T10:22:21;97594.31;;;25.02;36.19
43741;BME280;29352;48.708;9.290;2022-07-29T10:24:48;97593.81;;;25.62;34.88
43741;BME280;29352;48.708;9.290;2022-07-29T10:27:13;97599.94;;;20.13;40.17
43741;BME280;29352;48.708;9.290;2022-07-29T10:29:39;97592.81;;;21.85;38.58
43741;BME280;29352;48.708;9.290;2022-07-29T10:32:19;97586.88;;;23.69;36.95
43741;BME280;29352;48.708;9.290;2022-07-29T10:35:12;97590.03;;;24.53;36.67
43741;BME280;29352;48.708;9.290;2022-07-29T10:43:46;97579.50;;;22.86;37.71
43741;BME280;29352;48.708;9.290;2022-07-29T10:46:14;97579.03;;;22.31;37.75
43741;BME280;29352;48.708;9.290;2022-07-29T10:49:13;97569.81;;;23.00;37.45
43741;BME280;29352;48.708;9.290;2022-07-29T10:57:27;97571.59;;;21.89;38.25
43741;BME280;29352;48.708;9.290;2022-07-29T11:05:11;97581.97;;;21.96;37.78
43741;BME280;29352;48.708;9.290;2022-07-29T11:10:50;97573.81;;;21.61;38.96
43741;BME280;29352;48.708;9.290;2022-07-29T11:16:07;97580.63;;;20.57;40.71
43741;BME280;29352;48.708;9.290;2022-07-29T11:18:32;97594.16;;;20.82;39.85
43741;BME280;29352;48.708;9.290;2022-07-29T11:20:58;97623.19;;;20.95;40.39
43741;BME280;29352;48.708;9.290;2022-07-29T11:23:27;97625.53;;;18.44;40.49
43741;BME280;29352;48.708;9.290;2022-07-29T11:28:54;97688.72;;;12.07;53.35
43741;BME280;29352;48.708;9.290;2022-07-29T11:31:43;97739.94;;;9.53;57.32
43741;BME280;29352;48.708;9.290;2022-07-29T11:34:26;60945.38;;;-164.49;100.00
43741;BME280;29352;48.708;9.290;2022-07-29T11:47:38;97671.00;;;14.51;44.34
43741;BME280;29352;48.708;9.290;2022-07-29T11:50:31;97670.38;;;14.32;45.95
43741;BME280;29352;48.708;9.290;2022-07-29T11:53:00;97681.22;;;15.95;44.57
43741;BME280;29352;48.708;9.290;2022-07-29T11:55:28;97679.16;;;16.01;47.53
43741;BME280;29352;48.708;9.290;2022-07-29T11:57:56;60945.38;;;-164.49;100.00
43741;BME280;29352;48.708;9.290;2022-07-29T12:00:29;60945.38;;;-164.49;100.00
43741;BME280;29352;48.708;9.290;2022-07-29T12:02:58;60945.38;;;-164.49;100.00
43741;BME280;29352;48.708;9.290;2022-07-29T12:06:10;60945.38;;;-164.49;100.00
43741;BME280;29352;48.708;9.290;2022-07-29T12:08:25;97673.53;;;15.62;48.39
43741;BME280;29352;48.708;9.290;2022-07-29T12:10:51;60945.38;;;-164.49;100.00
43741;BME280;29352;48.708;9.290;2022-07-29T12:13:21;60945.38;;;-164.49;100.00
43741;BME280;29352;48.708;9.290;2022-07-29T12:15:55;60945.38;;;-164.49;100.00
43741;BME280;29352;48.708;9.290;2022-07-29T12:18:22;60945.38;;;-164.49;100.00
43741;BME280;29352;48.708;9.290;2022-07-29T12:20:56;60945.38;;;-164.49;100.00
43741;BME280;29352;48.708;9.290;2022-07-29T12:23:29;97660.63;;;15.97;48.31
43741;BME280;29352;48.708;9.290;2022-07-29T12:25:55;97657.25;;;16.18;49.52
43741;BME280;29352;48.708;9.290;2022-07-29T12:28:23;97644.91;;;16.88;45.92
43741;BME280;29352;48.708;9.290;2022-07-29T12:30:51;60945.38;;;-164.49;100.00
43741;BME280;29352;48.708;9.290;2022-07-29T12:33:25;97645.69;;;15.17;47.96
43741;BME280;29352;48.708;9.290;2022-07-29T12:36:00;97656.16;;;15.41;48.34
43741;BME280;29352;48.708;9.290;2022-07-29T12:38:28;97658.25;;;15.79;49.33
43741;BME280;29352;48.708;9.290;2022-07-29T12:40:54;97657.94;;;15.89;48.19
43741;BME280;29352;48.708;9.290;2022-07-29T12:43:22;97651.91;;;16.30;48.05
43741;BME280;29352;48.708;9.290;2022-07-29T12:45:50;97649.91;;;16.57;47.72
43741;BME280;29352;48.708;9.290;2022-07-29T12:48:37;97644.25;;;16.62;48.35
43741;BME280;29352;48.708;9.290;2022-07-29T12:51:09;97637.91;;;17.29;48.03
43741;BME280;29352;48.708;9.290;2022-07-29T12:53:37;97641.50;;;16.62;48.92
43741;BME280;29352;48.708;9.290;2022-07-29T12:56:04;97640.13;;;17.06;48.47
43741;BME280;29352;48.708;9.290;2022-07-29T13:01:16;97639.56;;;17.43;47.77
43741;BME280;29352;48.708;9.290;2022-07-29T13:03:50;97638.25;;;17.49;47.90
43741;BME280;29352;48.708;9.290;2022-07-29T13:06:40;97647.78;;;17.22;48.43
43741;BME280;29352;48.708;9.290;2022-07-29T13:09:10;97653.56;;;17.50;47.70
43741;BME280;29352;48.708;9.290;2022-07-29T13:11:43;97649.19;;;17.07;49.51
43741;BME280;29352;48.708;9.290;2022-07-29T13:14:32;97649.91;;;17.16;47.35
43741;BME280;29352;48.708;9.290;2022-07-29T13:17:18;97648.97;;;17.96;47.38
43741;BME280;29352;48.708;9.290;2022-07-29T13:19:51;97651.56;;;17.59;47.84
43741;BME280;29352;48.708;9.290;2022-07-29T13:22:20;97654.81;;;18.40;47.35
43741;BME280;29352;48.708;9.290;2022-07-29T13:24:58;97673.34;;;18.43;47.87
43741;BME280;29352;48.708;9.290;2022-07-29T13:27:30;97684.78;;;17.07;49.54
43741;BME280;29352;48.708;9.290;2022-07-29T13:29:58;97675.84;;;17.40;48.92
43741;BME280;29352;48.708;9.290;2022-07-29T13:32:27;97680.75;;;15.93;51.24
43741;BME280;29352;48.708;9.290;2022-07-29T13:34:55;97685.72;;;16.17;50.01
43741;BME280;29352;48.708;9.290;2022-07-29T13:37:25;97670.56;;;16.75;48.48
43741;BME280;29352;48.708;9.290;2022-07-29T13:39:51;97663.34;;;17.30;48.69
43741;BME280;29352;48.708;9.290;2022-07-29T13:42:19;97666.63;;;17.65;48.98
43741;BME280;29352;48.708;9.290;2022-07-29T13:44:44;97675.94;;;17.01;48.14
43741;BME280;29352;48.708;9.290;2022-07-29T13:47:10;97672.44;;;17.22;47.98
43741;BME280;29352;48.708;9.290;2022-07-29T13:49:35;97669.78;;;17.55;48.87
43741;BME280;29352;48.708;9.290;2022-07-29T13:52:02;97670.03;;;16.52;50.59
43741;BME280;29352;48.708;9.290;2022-07-29T13:54:28;97658.75;;;18.18;48.22
43741;BME280;29352;48.708;9.290;2022-07-29T13:56:53;97658.47;;;17.77;50.07
43741;BME280;29352;48.708;9.290;2022-07-29T13:59:19;97653.03;;;17.56;49.74
43741;BME280;29352;48.708;9.290;2022-07-29T14:01:44;97646.91;;;17.72;49.79